sensor_id;sensor_type;location;lat;lon;timestamp;temperature;humidity
37806;DHT22;25082;50.870;0.022;2023-04-26T00:02:24;17.70;59.70
37806;DHT22;25082;50.870;0.022;2023-04-26T00:04:52;17.70;59.70
37806;DHT22;25082;50.870;0.022;2023-04-26T00:07:23;17.60;59.70
37806;DHT22;25082;50.870;0.022;2023-04-26T00:09:52;17.60;59.60
37806;DHT22;25082;50.870;0.022;2023-04-26T00:12:18;17.60;59.70
37806;DHT22;25082;50.870;0.022;2023-04-26T00:15:05;17.60;59.70
37806;DHT22;25082;50.870;0.022;2023-04-26T00:17:32;17.60;59.70
37806;DHT22;25082;50.870;0.022;2023-04-26T00:19:57;17.60;59.70
37806;DHT22;25082;50.870;0.022;2023-04-26T00:22:23;17.60;59.60
37806;DHT22;25082;50.870;0.022;2023-04-26T00:24:50;17.60;59.60
37806;DHT22;25082;50.870;0.022;2023-04-26T00:27:16;17.60;59.80
37806;DHT22;25082;50.870;0.022;2023-04-26T00:29:42;17.60;59.80
37806;DHT22;25082;50.870;0.022;2023-04-26T00:32:07;17.50;59.70
37806;DHT22;25082;50.870;0.022;2023-04-26T00:34:34;17.50;59.60
37806;DHT22;25082;50.870;0.022;2023-04-26T00:37:00;17.60;59.70
37806;DHT22;25082;50.870;0.022;2023-04-26T00:39:26;17.50;59.50
37806;DHT22;25082;50.870;0.022;2023-04-26T00:41:52;17.50;59.60
37806;DHT22;25082;50.870;0.022;2023-04-26T00:44:18;17.50;59.70
37806;DHT22;25082;50.870;0.022;2023-04-26T00:46:43;17.50;59.70
37806;DHT22;25082;50.870;0.022;2023-04-26T00:49:16;17.50;59.60
37806;DHT22;25082;50.870;0.022;2023-04-26T00:51:46;17.50;59.60
37806;DHT22;25082;50.870;0.022;2023-04-26T00:54:13;17.50;59.70
37806;DHT22;25082;50.870;0.022;2023-04-26T00:56:41;17.50;59.60
37806;DHT22;25082;50.870;0.022;2023-04-26T00:59:07;17.50;59.50
37806;DHT22;25082;50.870;0.022;2023-04-26T01:01:33;17.40;59.70
37806;DHT22;25082;50.870;0.022;2023-04-26T01:04:00;17.40;59.70
37806;DHT22;25082;50.870;0.022;2023-04-26T01:06:32;17.40;59.60
37806;DHT22;25082;50.870;0.022;2023-04-26T01:09:01;17.40;59.70
37806;DHT22;25082;50.870;0.022;2023-04-26T01:11:35;17.40;59.60
37806;DHT22;25082;50.870;0.022;2023-04-26T01:14:03;17.40;59.70
37806;DHT22;25082;50.870;0.022;2023-04-26T01:16:29;17.40;59.70
37806;DHT22;25082;50.870;0.022;2023-04-26T01:18:55;17.40;60.20
37806;DHT22;25082;50.870;0.022;2023-04-26T01:21:22;17.40;59.50
37806;DHT22;25082;50.870;0.022;2023-04-26T01:23:49;17.40;59.60
37806;DHT22;25082;50.870;0.022;2023-04-26T01:26:15;17.40;59.70
37806;DHT22;25082;50.870;0.022;2023-04-26T01:28:41;17.30;60.20
37806;DHT22;25082;50.870;0.022;2023-04-26T01:31:07;17.30;59.60
37806;DHT22;25082;50.870;0.022;2023-04-26T01:33:32;17.30;59.50
37806;DHT22;25082;50.870;0.022;2023-04-26T01:35:58;17.30;59.70
37806;DHT22;25082;50.870;0.022;2023-04-26T01:38:24;17.30;59.70
37806;DHT22;25082;50.870;0.022;2023-04-26T01:40:50;17.30;59.60
37806;DHT22;25082;50.870;0.022;2023-04-26T01:43:16;17.30;59.60
37806;DHT22;25082;50.870;0.022;2023-04-26T01:45:48;17.30;59.80
37806;DHT22;25082;50.870;0.022;2023-04-26T01:48:13;17.30;59.70
37806;DHT22;25082;50.870;0.022;2023-04-26T01:50:39;17.30;59.80
37806;DHT22;25082;50.870;0.022;2023-04-26T01:53:05;17.30;59.70
37806;DHT22;25082;50.870;0.022;2023-04-26T01:55:32;17.20;59.70
37806;DHT22;25082;50.870;0.022;2023-04-26T01:57:58;17.30;59.70
37806;DHT22;25082;50.870;0.022;2023-04-26T02:00:23;17.20;59.70
37806;DHT22;25082;50.870;0.022;2023-04-26T02:02:49;17.20;59.80
37806;DHT22;25082;50.870;0.022;2023-04-26T02:05:18;17.20;59.80
37806;DHT22;25082;50.870;0.022;2023-04-26T02:07:44;17.20;59.80
37806;DHT22;25082;50.870;0.022;2023-04-26T02:10:10;17.20;59.80
37806;DHT22;25082;50.870;0.022;2023-04-26T02:12:35;17.20;59.80
37806;DHT22;25082;50.870;0.022;2023-04-26T02:15:01;17.20;59.80
37806;DHT22;25082;50.870;0.022;2023-04-26T02:17:27;17.20;59.90
37806;DHT22;25082;50.870;0.022;2023-04-26T02:19:54;17.20;59.90
37806;DHT22;25082;50.870;0.022;2023-04-26T02:22:19;17.20;59.80
37806;DHT22;25082;50.870;0.022;2023-04-26T02:24:49;17.10;59.70
37806;DHT22;25082;50.870;0.022;2023-04-26T02:27:15;17.20;59.80
37806;DHT22;25082;50.870;0.022;2023-04-26T02:29:40;17.10;59.70
37806;DHT22;25082;50.870;0.022;2023-04-26T02:32:06;17.20;59.70
37806;DHT22;25082;50.870;0.022;2023-04-26T02:34:33;17.10;59.80
37806;DHT22;25082;50.870;0.022;2023-04-26T02:36:59;17.10;59.80
37806;DHT22;25082;50.870;0.022;2023-04-26T02:39:25;17.10;59.80
37806;DHT22;25082;50.870;0.022;2023-04-26T02:41:51;17.10;59.80
37806;DHT22;25082;50.870;0.022;2023-04-26T02:44:16;17.10;59.70
37806;DHT22;25082;50.870;0.022;2023-04-26T02:46:42;17.10;59.80
37806;DHT22;25082;50.870;0.022;2023-04-26T02:49:08;17.10;59.80
37806;DHT22;25082;50.870;0.022;2023-04-26T02:51:33;17.10;59.80
37806;DHT22;25082;50.870;0.022;2023-04-26T02:53:59;17.10;59.90
37806;DHT22;25082;50.870;0.022;2023-04-26T02:56:25;17.10;59.80
37806;DHT22;25082;50.870;0.022;2023-04-26T02:58:51;17.10;59.80
37806;DHT22;25082;50.870;0.022;2023-04-26T03:01:16;17.10;59.80
37806;DHT22;25082;50.870;0.022;2023-04-26T03:03:43;17.10;59.80
37806;DHT22;25082;50.870;0.022;2023-04-26T03:06:08;17.00;59.70
37806;DHT22;25082;50.870;0.022;2023-04-26T03:08:34;17.00;59.80
37806;DHT22;25082;50.870;0.022;2023-04-26T03:11:01;17.00;59.80
37806;DHT22;25082;50.870;0.022;2023-04-26T03:13:27;17.00;59.80
37806;DHT22;25082;50.870;0.022;2023-04-26T03:15:53;17.00;59.80
37806;DHT22;25082;50.870;0.022;2023-04-26T03:18:18;17.00;59.90
37806;DHT22;25082;50.870;0.022;2023-04-26T03:20:47;17.00;59.70
37806;DHT22;25082;50.870;0.022;2023-04-26T03:23:13;17.00;59.90
37806;DHT22;25082;50.870;0.022;2023-04-26T03:25:39;17.00;60.00
37806;DHT22;25082;50.870;0.022;2023-04-26T03:28:05;17.00;59.90
37806;DHT22;25082;50.870;0.022;2023-04-26T03:30:30;17.00;59.80
37806;DHT22;25082;50.870;0.022;2023-04-26T03:32:56;17.00;59.80
37806;DHT22;25082;50.870;0.022;2023-04-26T03:35:22;16.90;59.80
37806;DHT22;25082;50.870;0.022;2023-04-26T03:37:48;17.00;59.80
37806;DHT22;25082;50.870;0.022;2023-04-26T03:40:13;17.00;59.90
37806;DHT22;25082;50.870;0.022;2023-04-26T03:42:41;16.90;59.80
37806;DHT22;25082;50.870;0.022;2023-04-26T03:45:07;16.90;59.80
37806;DHT22;25082;50.870;0.022;2023-04-26T03:47:33;16.90;59.90
37806;DHT22;25082;50.870;0.022;2023-04-26T03:49:59;16.90;60.00
37806;DHT22;25082;50.870;0.022;2023-04-26T03:52:25;16.90;60.50
37806;DHT22;25082;50.870;0.022;2023-04-26T03:54:50;16.90;60.00
37806;DHT22;25082;50.870;0.022;2023-04-26T03:57:16;16.90;60.20
37806;DHT22;25082;50.870;0.022;2023-04-26T03:59:42;16.90;60.00
37806;DHT22;25082;50.870;0.022;2023-04-26T04:02:07;16.90;60.10
37806;DHT22;25082;50.870;0.022;2023-04-26T04:04:33;16.90;60.10
37806;DHT22;25082;50.870;0.022;2023-04-26T04:06:59;16.90;60.30
37806;DHT22;25082;50.870;0.022;2023-04-26T04:09:25;16.90;60.20
37806;DHT22;25082;50.870;0.022;2023-04-26T04:11:51;16.90;60.10
37806;DHT22;25082;50.870;0.022;2023-04-26T04:14:16;16.90;60.10
37806;DHT22;25082;50.870;0.022;2023-04-26T04:16:42;16.90;60.00
37806;DHT22;25082;50.870;0.022;2023-04-26T04:19:08;16.90;60.20
37806;DHT22;25082;50.870;0.022;2023-04-26T04:21:34;16.80;60.10
37806;DHT22;25082;50.870;0.022;2023-04-26T04:24:00;16.90;60.20
37806;DHT22;25082;50.870;0.022;2023-04-26T04:26:26;16.80;60.10
37806;DHT22;25082;50.870;0.022;2023-04-26T04:28:54;16.80;60.10
37806;DHT22;25082;50.870;0.022;2023-04-26T04:31:22;16.80;60.20
37806;DHT22;25082;50.870;0.022;2023-04-26T04:33:47;16.80;60.20
37806;DHT22;25082;50.870;0.022;2023-04-26T04:36:13;16.80;60.00
37806;DHT22;25082;50.870;0.022;2023-04-26T04:38:42;16.80;60.10
37806;DHT22;25082;50.870;0.022;2023-04-26T04:41:08;16.80;60.20
37806;DHT22;25082;50.870;0.022;2023-04-26T04:43:34;16.80;60.10
37806;DHT22;25082;50.870;0.022;2023-04-26T04:46:00;16.80;60.20
37806;DHT22;25082;50.870;0.022;2023-04-26T04:48:26;16.80;60.20
37806;DHT22;25082;50.870;0.022;2023-04-26T04:50:52;16.80;60.30
37806;DHT22;25082;50.870;0.022;2023-04-26T04:53:17;16.80;60.20
37806;DHT22;25082;50.870;0.022;2023-04-26T04:55:43;16.80;60.10
37806;DHT22;25082;50.870;0.022;2023-04-26T04:58:09;16.80;60.30
37806;DHT22;25082;50.870;0.022;2023-04-26T05:00:35;16.70;60.30
37806;DHT22;25082;50.870;0.022;2023-04-26T05:03:02;16.70;60.20
37806;DHT22;25082;50.870;0.022;2023-04-26T05:05:28;16.70;60.20
37806;DHT22;25082;50.870;0.022;2023-04-26T05:07:54;16.70;60.30
37806;DHT22;25082;50.870;0.022;2023-04-26T05:10:19;16.70;60.10
37806;DHT22;25082;50.870;0.022;2023-04-26T05:12:45;16.70;60.30
37806;DHT22;25082;50.870;0.022;2023-04-26T05:15:11;16.70;60.00
37806;DHT22;25082;50.870;0.022;2023-04-26T05:17:37;16.70;60.30
37806;DHT22;25082;50.870;0.022;2023-04-26T05:20:03;16.70;60.30
37806;DHT22;25082;50.870;0.022;2023-04-26T05:22:31;16.70;60.40
37806;DHT22;25082;50.870;0.022;2023-04-26T05:24:59;16.70;60.40
37806;DHT22;25082;50.870;0.022;2023-04-26T05:27:27;16.70;60.30
37806;DHT22;25082;50.870;0.022;2023-04-26T05:29:53;16.70;60.30
37806;DHT22;25082;50.870;0.022;2023-04-26T05:32:19;16.70;60.40
37806;DHT22;25082;50.870;0.022;2023-04-26T05:34:44;16.70;60.50
37806;DHT22;25082;50.870;0.022;2023-04-26T05:37:10;16.70;60.30
37806;DHT22;25082;50.870;0.022;2023-04-26T05:39:36;16.70;60.40
37806;DHT22;25082;50.870;0.022;2023-04-26T05:42:02;16.70;60.20
37806;DHT22;25082;50.870;0.022;2023-04-26T05:44:28;16.70;60.90
37806;DHT22;25082;50.870;0.022;2023-04-26T05:46:54;16.60;60.30
37806;DHT22;25082;50.870;0.022;2023-04-26T05:49:20;16.70;60.30
37806;DHT22;25082;50.870;0.022;2023-04-26T05:51:46;16.70;60.30
37806;DHT22;25082;50.870;0.022;2023-04-26T05:54:11;16.70;60.30
37806;DHT22;25082;50.870;0.022;2023-04-26T05:56:37;16.60;60.30
37806;DHT22;25082;50.870;0.022;2023-04-26T05:59:03;16.60;60.30
37806;DHT22;25082;50.870;0.022;2023-04-26T06:01:29;16.60;60.30
37806;DHT22;25082;50.870;0.022;2023-04-26T06:03:55;16.60;60.40
37806;DHT22;25082;50.870;0.022;2023-04-26T06:06:21;16.60;60.20
37806;DHT22;25082;50.870;0.022;2023-04-26T06:08:46;16.60;60.30
37806;DHT22;25082;50.870;0.022;2023-04-26T06:11:12;16.60;60.30
37806;DHT22;25082;50.870;0.022;2023-04-26T06:13:38;16.60;60.40
37806;DHT22;25082;50.870;0.022;2023-04-26T06:16:04;16.60;60.30
37806;DHT22;25082;50.870;0.022;2023-04-26T06:18:29;16.60;60.30
37806;DHT22;25082;50.870;0.022;2023-04-26T06:20:55;16.60;60.00
37806;DHT22;25082;50.870;0.022;2023-04-26T06:23:21;16.70;60.10
37806;DHT22;25082;50.870;0.022;2023-04-26T06:25:46;16.70;59.80
37806;DHT22;25082;50.870;0.022;2023-04-26T06:28:12;16.70;59.70
37806;DHT22;25082;50.870;0.022;2023-04-26T06:30:38;16.70;59.70
37806;DHT22;25082;50.870;0.022;2023-04-26T06:33:04;16.80;59.60
37806;DHT22;25082;50.870;0.022;2023-04-26T06:35:30;16.80;59.60
37806;DHT22;25082;50.870;0.022;2023-04-26T06:37:55;16.80;59.50
37806;DHT22;25082;50.870;0.022;2023-04-26T06:40:21;16.80;59.50
37806;DHT22;25082;50.870;0.022;2023-04-26T06:42:47;16.90;59.50
37806;DHT22;25082;50.870;0.022;2023-04-26T06:45:13;16.90;59.50
37806;DHT22;25082;50.870;0.022;2023-04-26T06:47:39;16.90;59.50
37806;DHT22;25082;50.870;0.022;2023-04-26T06:50:05;16.90;59.50
37806;DHT22;25082;50.870;0.022;2023-04-26T06:52:31;17.00;59.60
37806;DHT22;25082;50.870;0.022;2023-04-26T06:55:00;17.00;59.60
37806;DHT22;25082;50.870;0.022;2023-04-26T06:57:27;17.00;59.60
37806;DHT22;25082;50.870;0.022;2023-04-26T06:59:52;17.10;59.70
37806;DHT22;25082;50.870;0.022;2023-04-26T07:02:18;17.10;59.70
37806;DHT22;25082;50.870;0.022;2023-04-26T07:04:44;17.10;59.70
37806;DHT22;25082;50.870;0.022;2023-04-26T07:07:09;17.10;59.70
37806;DHT22;25082;50.870;0.022;2023-04-26T07:09:36;17.20;59.80
37806;DHT22;25082;50.870;0.022;2023-04-26T07:12:02;17.20;59.80
37806;DHT22;25082;50.870;0.022;2023-04-26T07:14:28;17.20;59.80
37806;DHT22;25082;50.870;0.022;2023-04-26T07:16:54;17.20;59.80
37806;DHT22;25082;50.870;0.022;2023-04-26T07:19:19;17.20;59.80
37806;DHT22;25082;50.870;0.022;2023-04-26T07:21:45;17.20;59.80
37806;DHT22;25082;50.870;0.022;2023-04-26T07:24:11;17.30;59.80
37806;DHT22;25082;50.870;0.022;2023-04-26T07:26:38;17.30;59.80
37806;DHT22;25082;50.870;0.022;2023-04-26T07:29:03;17.30;59.80
37806;DHT22;25082;50.870;0.022;2023-04-26T07:31:32;17.30;59.90
37806;DHT22;25082;50.870;0.022;2023-04-26T07:33:58;17.30;59.90
37806;DHT22;25082;50.870;0.022;2023-04-26T07:36:24;17.40;59.90
37806;DHT22;25082;50.870;0.022;2023-04-26T07:38:50;17.40;59.90
37806;DHT22;25082;50.870;0.022;2023-04-26T07:41:16;17.40;60.00
37806;DHT22;25082;50.870;0.022;2023-04-26T07:43:42;17.40;60.00
37806;DHT22;25082;50.870;0.022;2023-04-26T07:46:08;17.40;59.90
37806;DHT22;25082;50.870;0.022;2023-04-26T07:48:34;17.40;59.90
37806;DHT22;25082;50.870;0.022;2023-04-26T07:51:10;17.40;59.90
37806;DHT22;25082;50.870;0.022;2023-04-26T07:53:36;17.50;60.00
37806;DHT22;25082;50.870;0.022;2023-04-26T07:56:06;17.50;60.00
37806;DHT22;25082;50.870;0.022;2023-04-26T07:58:37;17.50;60.20
37806;DHT22;25082;50.870;0.022;2023-04-26T08:01:04;17.50;60.30
37806;DHT22;25082;50.870;0.022;2023-04-26T08:03:30;17.60;60.40
37806;DHT22;25082;50.870;0.022;2023-04-26T08:05:55;17.60;60.40
37806;DHT22;25082;50.870;0.022;2023-04-26T08:08:24;17.60;60.30
37806;DHT22;25082;50.870;0.022;2023-04-26T08:10:50;17.60;60.30
37806;DHT22;25082;50.870;0.022;2023-04-26T08:13:16;17.70;60.30
37806;DHT22;25082;50.870;0.022;2023-04-26T08:15:42;17.70;60.30
37806;DHT22;25082;50.870;0.022;2023-04-26T08:18:07;17.70;60.20
37806;DHT22;25082;50.870;0.022;2023-04-26T08:20:33;17.70;60.20
37806;DHT22;25082;50.870;0.022;2023-04-26T08:22:59;17.70;60.20
37806;DHT22;25082;50.870;0.022;2023-04-26T08:25:25;17.70;60.20
37806;DHT22;25082;50.870;0.022;2023-04-26T08:27:51;17.80;60.20
37806;DHT22;25082;50.870;0.022;2023-04-26T08:30:17;17.80;60.20
37806;DHT22;25082;50.870;0.022;2023-04-26T08:32:44;17.80;60.20
37806;DHT22;25082;50.870;0.022;2023-04-26T08:35:10;17.80;60.20
37806;DHT22;25082;50.870;0.022;2023-04-26T08:37:35;17.80;60.20
37806;DHT22;25082;50.870;0.022;2023-04-26T08:40:03;17.80;60.10
37806;DHT22;25082;50.870;0.022;2023-04-26T08:42:30;17.80;60.10
37806;DHT22;25082;50.870;0.022;2023-04-26T08:44:59;17.90;60.20
37806;DHT22;25082;50.870;0.022;2023-04-26T08:47:48;17.90;60.20
37806;DHT22;25082;50.870;0.022;2023-04-26T08:50:19;17.90;60.20
37806;DHT22;25082;50.870;0.022;2023-04-26T08:52:47;17.90;60.20
37806;DHT22;25082;50.870;0.022;2023-04-26T08:55:13;17.90;60.30
37806;DHT22;25082;50.870;0.022;2023-04-26T08:57:42;17.90;60.30
37806;DHT22;25082;50.870;0.022;2023-04-26T09:00:10;17.90;60.60
37806;DHT22;25082;50.870;0.022;2023-04-26T09:02:50;18.00;61.30
37806;DHT22;25082;50.870;0.022;2023-04-26T09:05:20;17.90;61.00
37806;DHT22;25082;50.870;0.022;2023-04-26T09:07:49;18.00;61.00
37806;DHT22;25082;50.870;0.022;2023-04-26T09:10:20;17.90;61.10
37806;DHT22;25082;50.870;0.022;2023-04-26T09:12:49;18.00;61.20
37806;DHT22;25082;50.870;0.022;2023-04-26T09:15:16;18.00;61.30
37806;DHT22;25082;50.870;0.022;2023-04-26T09:17:41;18.00;61.10
37806;DHT22;25082;50.870;0.022;2023-04-26T09:20:25;18.00;61.20
37806;DHT22;25082;50.870;0.022;2023-04-26T09:22:53;18.00;60.80
37806;DHT22;25082;50.870;0.022;2023-04-26T09:25:29;18.00;60.70
37806;DHT22;25082;50.870;0.022;2023-04-26T09:27:56;18.00;60.50
37806;DHT22;25082;50.870;0.022;2023-04-26T09:30:22;18.00;60.50
37806;DHT22;25082;50.870;0.022;2023-04-26T09:32:56;18.00;60.50
37806;DHT22;25082;50.870;0.022;2023-04-26T09:35:27;18.00;60.50
37806;DHT22;25082;50.870;0.022;2023-04-26T09:38:06;18.00;60.30
37806;DHT22;25082;50.870;0.022;2023-04-26T09:40:37;18.00;60.30
37806;DHT22;25082;50.870;0.022;2023-04-26T09:45:51;18.00;60.30
37806;DHT22;25082;50.870;0.022;2023-04-26T09:48:22;18.00;56.60
37806;DHT22;25082;50.870;0.022;2023-04-26T09:50:50;17.90;58.50
37806;DHT22;25082;50.870;0.022;2023-04-26T09:55:55;17.90;59.20
37806;DHT22;25082;50.870;0.022;2023-04-26T09:58:21;17.90;59.50
37806;DHT22;25082;50.870;0.022;2023-04-26T10:00:50;18.00;59.70
37806;DHT22;25082;50.870;0.022;2023-04-26T10:03:17;18.00;60.20
37806;DHT22;25082;50.870;0.022;2023-04-26T10:05:44;18.00;60.40
37806;DHT22;25082;50.870;0.022;2023-04-26T10:08:10;18.00;60.60
37806;DHT22;25082;50.870;0.022;2023-04-26T10:10:37;18.00;60.40
37806;DHT22;25082;50.870;0.022;2023-04-26T10:13:04;17.90;54.50
37806;DHT22;25082;50.870;0.022;2023-04-26T10:15:31;17.90;57.80
37806;DHT22;25082;50.870;0.022;2023-04-26T10:17:57;17.90;58.60
37806;DHT22;25082;50.870;0.022;2023-04-26T10:20:25;17.90;59.10
37806;DHT22;25082;50.870;0.022;2023-04-26T10:22:53;17.90;59.20
37806;DHT22;25082;50.870;0.022;2023-04-26T10:25:46;18.00;59.40
37806;DHT22;25082;50.870;0.022;2023-04-26T10:28:11;18.00;59.80
37806;DHT22;25082;50.870;0.022;2023-04-26T10:30:56;18.00;59.70
37806;DHT22;25082;50.870;0.022;2023-04-26T10:33:24;18.00;59.90
37806;DHT22;25082;50.870;0.022;2023-04-26T10:36:08;18.10;60.00
37806;DHT22;25082;50.870;0.022;2023-04-26T10:38:37;18.10;60.10
37806;DHT22;25082;50.870;0.022;2023-04-26T10:41:34;18.10;60.10
37806;DHT22;25082;50.870;0.022;2023-04-26T10:47:30;18.20;60.30
37806;DHT22;25082;50.870;0.022;2023-04-26T10:50:07;18.20;60.50
37806;DHT22;25082;50.870;0.022;2023-04-26T10:52:35;18.30;60.70
37806;DHT22;25082;50.870;0.022;2023-04-26T10:55:02;18.30;60.60
37806;DHT22;25082;50.870;0.022;2023-04-26T10:57:51;18.30;60.70
37806;DHT22;25082;50.870;0.022;2023-04-26T11:02:52;18.30;60.70
37806;DHT22;25082;50.870;0.022;2023-04-26T11:05:40;18.30;60.70
37806;DHT22;25082;50.870;0.022;2023-04-26T11:10:38;18.40;60.70
37806;DHT22;25082;50.870;0.022;2023-04-26T11:13:05;18.50;60.80
37806;DHT22;25082;50.870;0.022;2023-04-26T11:15:31;18.50;60.90
37806;DHT22;25082;50.870;0.022;2023-04-26T11:18:00;18.40;60.90
37806;DHT22;25082;50.870;0.022;2023-04-26T11:20:31;18.40;60.90
37806;DHT22;25082;50.870;0.022;2023-04-26T11:22:57;18.50;61.00
37806;DHT22;25082;50.870;0.022;2023-04-26T11:25:27;18.40;61.10
37806;DHT22;25082;50.870;0.022;2023-04-26T11:27:59;18.50;61.10
37806;DHT22;25082;50.870;0.022;2023-04-26T11:30:32;18.40;60.90
37806;DHT22;25082;50.870;0.022;2023-04-26T11:33:01;18.50;60.90
37806;DHT22;25082;50.870;0.022;2023-04-26T11:35:37;18.50;60.70
37806;DHT22;25082;50.870;0.022;2023-04-26T11:38:04;18.40;60.60
37806;DHT22;25082;50.870;0.022;2023-04-26T11:40:31;18.50;60.60
37806;DHT22;25082;50.870;0.022;2023-04-26T11:43:04;18.50;60.70
37806;DHT22;25082;50.870;0.022;2023-04-26T11:45:32;18.50;60.80
37806;DHT22;25082;50.870;0.022;2023-04-26T11:48:00;18.50;61.00
37806;DHT22;25082;50.870;0.022;2023-04-26T11:50:27;18.50;61.30
37806;DHT22;25082;50.870;0.022;2023-04-26T11:52:54;18.50;61.40
37806;DHT22;25082;50.870;0.022;2023-04-26T11:55:30;18.50;61.50
37806;DHT22;25082;50.870;0.022;2023-04-26T11:57:59;18.50;61.50
37806;DHT22;25082;50.870;0.022;2023-04-26T12:00:26;18.50;61.50
37806;DHT22;25082;50.870;0.022;2023-04-26T12:02:53;18.50;61.40
37806;DHT22;25082;50.870;0.022;2023-04-26T12:05:24;18.60;61.50
37806;DHT22;25082;50.870;0.022;2023-04-26T12:07:54;18.60;61.50
37806;DHT22;25082;50.870;0.022;2023-04-26T12:10:33;18.60;61.50
37806;DHT22;25082;50.870;0.022;2023-04-26T12:12:59;18.60;61.50
37806;DHT22;25082;50.870;0.022;2023-04-26T12:15:29;18.60;61.50
37806;DHT22;25082;50.870;0.022;2023-04-26T12:18:04;18.60;61.60
37806;DHT22;25082;50.870;0.022;2023-04-26T12:20:32;18.70;61.70
37806;DHT22;25082;50.870;0.022;2023-04-26T12:23:08;18.70;61.70
37806;DHT22;25082;50.870;0.022;2023-04-26T12:25:38;18.70;61.60
37806;DHT22;25082;50.870;0.022;2023-04-26T12:28:07;18.80;61.70
37806;DHT22;25082;50.870;0.022;2023-04-26T12:30:37;18.80;61.70
37806;DHT22;25082;50.870;0.022;2023-04-26T12:33:03;18.80;61.50
37806;DHT22;25082;50.870;0.022;2023-04-26T12:35:29;18.80;61.30
37806;DHT22;25082;50.870;0.022;2023-04-26T12:37:55;18.80;61.20
37806;DHT22;25082;50.870;0.022;2023-04-26T12:40:22;18.80;61.10
37806;DHT22;25082;50.870;0.022;2023-04-26T12:42:49;18.80;61.00
37806;DHT22;25082;50.870;0.022;2023-04-26T12:45:16;18.80;61.00
37806;DHT22;25082;50.870;0.022;2023-04-26T12:47:45;18.80;61.00
37806;DHT22;25082;50.870;0.022;2023-04-26T12:50:12;18.80;60.90
37806;DHT22;25082;50.870;0.022;2023-04-26T12:52:42;18.80;60.80
37806;DHT22;25082;50.870;0.022;2023-04-26T12:55:09;18.80;60.90
37806;DHT22;25082;50.870;0.022;2023-04-26T12:57:37;18.80;60.90
37806;DHT22;25082;50.870;0.022;2023-04-26T13:00:09;18.80;59.20
37806;DHT22;25082;50.870;0.022;2023-04-26T13:02:35;18.70;60.00
37806;DHT22;25082;50.870;0.022;2023-04-26T13:05:02;18.70;59.80
37806;DHT22;25082;50.870;0.022;2023-04-26T13:07:31;18.70;58.80
37806;DHT22;25082;50.870;0.022;2023-04-26T13:09:56;18.70;58.40
37806;DHT22;25082;50.870;0.022;2023-04-26T13:12:22;18.60;57.90
37806;DHT22;25082;50.870;0.022;2023-04-26T13:14:48;18.60;57.50
37806;DHT22;25082;50.870;0.022;2023-04-26T13:17:14;18.70;57.30
37806;DHT22;25082;50.870;0.022;2023-04-26T13:19:40;18.70;56.90
37806;DHT22;25082;50.870;0.022;2023-04-26T13:22:05;18.60;57.20
37806;DHT22;25082;50.870;0.022;2023-04-26T13:24:33;18.70;57.80
37806;DHT22;25082;50.870;0.022;2023-04-26T13:27:00;18.70;58.10
37806;DHT22;25082;50.870;0.022;2023-04-26T13:29:26;18.70;58.40
37806;DHT22;25082;50.870;0.022;2023-04-26T13:31:51;18.70;58.70
37806;DHT22;25082;50.870;0.022;2023-04-26T13:34:17;18.70;58.40
37806;DHT22;25082;50.870;0.022;2023-04-26T13:36:43;18.70;58.20
37806;DHT22;25082;50.870;0.022;2023-04-26T13:39:09;18.70;58.20
37806;DHT22;25082;50.870;0.022;2023-04-26T13:41:35;18.70;58.30
37806;DHT22;25082;50.870;0.022;2023-04-26T13:44:02;18.70;58.40
37806;DHT22;25082;50.870;0.022;2023-04-26T13:46:29;18.70;58.60
37806;DHT22;25082;50.870;0.022;2023-04-26T13:48:56;18.70;58.70
37806;DHT22;25082;50.870;0.022;2023-04-26T13:51:22;18.80;58.90
37806;DHT22;25082;50.870;0.022;2023-04-26T13:53:50;18.80;59.00
37806;DHT22;25082;50.870;0.022;2023-04-26T13:56:19;18.80;59.20
37806;DHT22;25082;50.870;0.022;2023-04-26T13:58:45;18.80;59.20
37806;DHT22;25082;50.870;0.022;2023-04-26T14:01:11;18.80;59.40
37806;DHT22;25082;50.870;0.022;2023-04-26T14:03:37;18.80;59.50
37806;DHT22;25082;50.870;0.022;2023-04-26T14:06:03;18.80;59.50
37806;DHT22;25082;50.870;0.022;2023-04-26T14:08:29;18.80;59.50
37806;DHT22;25082;50.870;0.022;2023-04-26T14:10:54;18.80;59.60
37806;DHT22;25082;50.870;0.022;2023-04-26T14:13:20;18.80;59.60
37806;DHT22;25082;50.870;0.022;2023-04-26T14:15:46;18.80;59.70
37806;DHT22;25082;50.870;0.022;2023-04-26T14:18:12;18.80;59.70
37806;DHT22;25082;50.870;0.022;2023-04-26T14:20:38;18.80;59.70
37806;DHT22;25082;50.870;0.022;2023-04-26T14:23:03;18.80;59.80
37806;DHT22;25082;50.870;0.022;2023-04-26T14:25:29;18.80;59.80
37806;DHT22;25082;50.870;0.022;2023-04-26T14:27:55;18.80;59.80
37806;DHT22;25082;50.870;0.022;2023-04-26T14:30:21;18.80;59.80
37806;DHT22;25082;50.870;0.022;2023-04-26T14:32:47;18.80;59.90
37806;DHT22;25082;50.870;0.022;2023-04-26T14:35:12;18.80;59.90
37806;DHT22;25082;50.870;0.022;2023-04-26T14:37:38;18.80;60.00
37806;DHT22;25082;50.870;0.022;2023-04-26T14:40:04;18.80;60.00
37806;DHT22;25082;50.870;0.022;2023-04-26T14:42:32;18.80;60.00
37806;DHT22;25082;50.870;0.022;2023-04-26T14:44:58;18.80;60.00
37806;DHT22;25082;50.870;0.022;2023-04-26T14:47:24;18.80;60.10
37806;DHT22;25082;50.870;0.022;2023-04-26T14:49:50;18.80;60.10
37806;DHT22;25082;50.870;0.022;2023-04-26T14:52:16;18.80;60.10
37806;DHT22;25082;50.870;0.022;2023-04-26T14:54:42;18.70;60.10
37806;DHT22;25082;50.870;0.022;2023-04-26T14:57:08;18.70;60.20
37806;DHT22;25082;50.870;0.022;2023-04-26T14:59:35;18.70;60.20
37806;DHT22;25082;50.870;0.022;2023-04-26T15:02:01;18.70;60.20
37806;DHT22;25082;50.870;0.022;2023-04-26T15:04:28;18.80;60.20
37806;DHT22;25082;50.870;0.022;2023-04-26T15:06:54;18.80;60.30
37806;DHT22;25082;50.870;0.022;2023-04-26T15:09:21;18.80;60.60
37806;DHT22;25082;50.870;0.022;2023-04-26T15:11:46;18.80;60.80
37806;DHT22;25082;50.870;0.022;2023-04-26T15:14:12;18.80;60.80
37806;DHT22;25082;50.870;0.022;2023-04-26T15:16:38;18.80;60.80
37806;DHT22;25082;50.870;0.022;2023-04-26T15:19:03;18.90;61.00
37806;DHT22;25082;50.870;0.022;2023-04-26T15:21:29;18.80;60.80
37806;DHT22;25082;50.870;0.022;2023-04-26T15:23:55;18.90;60.90
37806;DHT22;25082;50.870;0.022;2023-04-26T15:26:21;18.90;60.90
37806;DHT22;25082;50.870;0.022;2023-04-26T15:28:48;18.90;60.90
37806;DHT22;25082;50.870;0.022;2023-04-26T15:31:14;19.00;61.00
37806;DHT22;25082;50.870;0.022;2023-04-26T15:33:40;19.00;61.00
37806;DHT22;25082;50.870;0.022;2023-04-26T15:36:06;19.00;60.90
37806;DHT22;25082;50.870;0.022;2023-04-26T15:38:35;19.00;61.00
37806;DHT22;25082;50.870;0.022;2023-04-26T15:41:01;19.10;61.00
37806;DHT22;25082;50.870;0.022;2023-04-26T15:43:27;19.10;61.00
37806;DHT22;25082;50.870;0.022;2023-04-26T15:45:53;19.10;61.00